createdAt,value
2023-03-11T00:03:55.197Z,19.68
2023-03-11T00:32:44.989Z,19.64
2023-03-11T01:01:32.247Z,19.61
2023-03-11T01:30:17.521Z,19.58
2023-03-11T01:59:09.726Z,19.56
2023-03-11T02:27:57.399Z,19.53
2023-03-11T02:56:45.508Z,19.5
2023-03-11T03:25:36.508Z,19.47
2023-03-11T03:54:28.476Z,19.45
2023-03-11T04:23:17.952Z,19.42
2023-03-11T04:52:08.991Z,19.4
2023-03-11T05:21:01.198Z,19.38
2023-03-11T05:49:52.678Z,19.74
2023-03-11T06:18:41.726Z,19.73
2023-03-11T06:47:29.992Z,19.6
2023-03-11T07:16:17.279Z,19.54
2023-03-11T07:44:50.071Z,19.7
2023-03-11T08:13:37.789Z,19.69
2023-03-11T08:42:25.955Z,19.78
2023-03-11T09:11:14.132Z,19.74
2023-03-11T09:39:57.017Z,19.88
2023-03-11T10:08:37.598Z,20.14
2023-03-11T10:37:15.899Z,20.22
2023-03-11T11:06:03.347Z,20.36
2023-03-11T11:34:46.554Z,20.38
2023-03-11T12:03:34.803Z,20.28
2023-03-11T12:32:06.704Z,20.17
2023-03-11T13:00:43.268Z,20.11
2023-03-11T13:29:18.252Z,20.13
2023-03-11T13:58:02.043Z,20.32
2023-03-11T14:26:39.224Z,20.42
2023-03-11T14:55:21.845Z,20.5
2023-03-11T15:24:03.594Z,20.28
2023-03-11T15:52:40.480Z,20.16
2023-03-11T16:21:20.283Z,20.1
2023-03-11T16:49:58.812Z,20.03
2023-03-11T17:18:40.179Z,20
2023-03-11T17:47:21.026Z,19.91
2023-03-11T18:15:43.997Z,19.88
2023-03-11T18:44:08.883Z,19.85
2023-03-11T19:12:49.385Z,19.82
2023-03-11T19:41:30.803Z,19.78
2023-03-11T20:10:19.609Z,19.76
2023-03-11T20:39:01.443Z,19.73
2023-03-11T21:07:38.286Z,19.71
2023-03-11T21:36:20.609Z,19.68
2023-03-11T22:04:46.205Z,19.64
2023-03-11T22:33:26.073Z,19.5
2023-03-11T23:02:17.413Z,19.45
2023-03-11T23:31:18.363Z,19.43
